Saturday, September 22, 2018, 3:28 AM EDT
Back to Local

KABE, Lehigh Valley International Airport

Location: Allentown, PA, United States Lat: 40.65
Local Time: 3:28 AM EDT ( 7:28 GMT) Lon: -75.45
Time Zone: US/Eastern Elev: 393 ft

Show me the last for .
Show Coded

Time T Td Feel RH Dir Speed Gust Alt SLP Vis Weather Sky Remarks
2018-09-22 02:51 73 68 77 84 240° 8 - 29.98 29.97 10 SCT035 BKN055 OVC100 1-hr Precip Total: Trace
2018-09-22 01:58 75 68 79 78 240° 14 22 29.97 - 10 SCT020 OVC050 None
2018-09-22 01:51 75 68 78 78 240° 16 - 29.97 29.96 10 BKN020 OVC050 1-hr Precip Total: Trace
6-hr Precip Total (2am): 0.00"
6-hr Min Temp (2am): 72.0°F
6-hr Max Temp (2am): 75.0°F
2018-09-22 00:51 74 67 78 78 240° 8 - 29.97 29.96 10 OVC016 24-hr Min Temp (1am): 64.9°F
24-hr Max Temp (1am): 73.9°F
2018-09-21 23:51 73 65 77 75 200° 9 - 29.97 29.96 10 OVC018 None
2018-09-21 22:51 73 65 77 75 210° 10 - 30.01 30.00 10 OVC018 None
2018-09-21 21:51 73 65 77 75 200° 8 - 30.01 30.00 10 OVC020 None
2018-09-21 20:51 73 64 77 73 220° 12 - 30.03 30.02 10 OVC022 None
2018-09-21 19:51 73 64 77 73 210° 6 - 30.00 30.00 10 OVC021 6-hr Min Temp (8pm): 73.0°F
6-hr Max Temp (8pm): 73.9°F
2018-09-21 18:51 73 64 77 73 190° 8 - 30.02 30.01 10 OVC022 None
2018-09-21 17:51 73 64 77 73 190° 7 - 30.05 30.04 10 OVC022 None
2018-09-21 16:51 73 62 77 68 190° 9 - 30.07 30.06 10 OVC024 None
2018-09-21 15:51 73 62 77 68 210° 10 - 30.09 30.09 10 OVC028 None
2018-09-21 15:10 74 61 77 64 190° 12 - 30.10 - 10 OVC032 None
2018-09-21 14:56 74 61 77 64 190° 12 - 30.11 - 1 HZ OVC032 None
2018-09-21 14:51 74 61 77 64 200° 12 - 30.11 30.10 10 OVC034 None
2018-09-21 13:51 73 63 77 70 200° 6 - 30.14 30.13 10 FEW027 OVC035 6-hr Precip Total (2pm): 0.00"
6-hr Min Temp (2pm): 64.9°F
6-hr Max Temp (2pm): 73.0°F
2018-09-21 13:34 72 63 76 73 200° 6 - 30.14 - 10 SCT025 OVC035 None
2018-09-21 12:51 71 62 76 73 190° 6 - 30.16 30.16 10 OVC024 None
2018-09-21 11:51 70 62 - 76 190° 8 - 30.18 30.18 10 BKN024 OVC034 None
2018-09-21 10:51 69 63 - 80 150° 8 - 30.20 30.20 10 FEW027 OVC037 1-hr Precip Total: Trace
6-hr Precip Total (11am): 0.00"
2018-09-21 10:35 68 63 - 83 160° 5 - 30.22 - 10 -RA FEW016 OVC038 1-hr Precip Total: Trace
2018-09-21 10:25 68 62 - 81 160° 6 - 30.22 - 7 -RA BKN016 BKN031 OVC038 1-hr Precip Total: Trace
2018-09-21 09:51 68 62 - 81 - Calm - 30.23 30.22 10 OVC012 None
2018-09-21 09:19 67 62 - 84 170° 5 - 30.23 - 10 BKN014 OVC029 None
2018-09-21 08:51 67 62 - 84 170° 7 - 30.23 30.22 10 OVC035 None
2018-09-21 08:31 66 62 - 87 140° 6 - 30.24 - 10 SCT016 OVC035 None
2018-09-21 07:51 65 62 - 90 130° 5 - 30.25 30.24 9 OVC015 1-hr Precip Total: 0.01"
6-hr Precip Total (8am): 0.01"
24-hr Precip Total (8am): 0.01"
6-hr Min Temp (8am): 64.9°F
6-hr Max Temp (8am): 66.9°F
2018-09-21 07:43 65 61 - 87 160° 3 - 30.25 - 5 -RA BR OVC015 1-hr Precip Total: 0.01"
2018-09-21 07:34 65 61 - 87 150° 5 - 30.25 - 2 -RA BR OVC015 1-hr Precip Total: 0.01"
2018-09-21 07:04 65 61 - 87 150° 3 - 30.25 - 6 -RA BR OVC017 1-hr Precip Total: 0.01"
2018-09-21 06:51 66 61 - 83 170° 3 - 30.25 30.24 7 -RA BKN014 OVC021 1-hr Precip Total: Trace
2018-09-21 05:51 66 60 - 81 110° 5 - 30.24 30.24 10 BKN017 OVC026 1-hr Precip Total: Trace
2018-09-21 04:51 67 59 - 75 130° 3 - 30.24 30.23 10 OVC028 None
2018-09-21 03:51 67 59 - 75 120° 3 - 30.23 30.22 10 SCT017 OVC030 None
2018-09-21 03:44 67 59 - 75 140° 3 - 30.23 - 10 SCT017 OVC030 None

Support USWX by starting your Amazon purchase here.